sensor_id;sensor_type;location;lat;lon;timestamp;temperature;humidity
77247;SHT35;66279;42.820;23.374;2023-05-07T00:00:19;8.72;82.35
77247;SHT35;66279;42.820;23.374;2023-05-07T00:02:45;8.67;82.23
77247;SHT35;66279;42.820;23.374;2023-05-07T00:05:11;8.63;82.61
77247;SHT35;66279;42.820;23.374;2023-05-07T00:07:37;8.58;83.39
77247;SHT35;66279;42.820;23.374;2023-05-07T00:10:03;8.54;83.67
77247;SHT35;66279;42.820;23.374;2023-05-07T00:12:29;8.46;83.47
77247;SHT35;66279;42.820;23.374;2023-05-07T00:15:04;8.41;82.80
77247;SHT35;66279;42.820;23.374;2023-05-07T00:17:31;8.40;82.57
77247;SHT35;66279;42.820;23.374;2023-05-07T00:19:56;8.38;82.74
77247;SHT35;66279;42.820;23.374;2023-05-07T00:22:22;8.37;82.36
77247;SHT35;66279;42.820;23.374;2023-05-07T00:24:47;8.30;83.36
77247;SHT35;66279;42.820;23.374;2023-05-07T00:27:13;8.32;84.50
77247;SHT35;66279;42.820;23.374;2023-05-07T00:29:38;8.34;83.97
77247;SHT35;66279;42.820;23.374;2023-05-07T00:32:04;8.34;82.89
77247;SHT35;66279;42.820;23.374;2023-05-07T00:34:30;8.33;83.11
77247;SHT35;66279;42.820;23.374;2023-05-07T00:36:55;8.29;83.29
77247;SHT35;66279;42.820;23.374;2023-05-07T00:39:21;8.29;83.59
77247;SHT35;66279;42.820;23.374;2023-05-07T00:41:46;8.29;84.00
77247;SHT35;66279;42.820;23.374;2023-05-07T00:44:12;8.30;83.84
77247;SHT35;66279;42.820;23.374;2023-05-07T00:46:38;8.27;82.80
77247;SHT35;66279;42.820;23.374;2023-05-07T00:49:04;8.23;82.53
77247;SHT35;66279;42.820;23.374;2023-05-07T00:51:30;8.17;82.86
77247;SHT35;66279;42.820;23.374;2023-05-07T00:53:56;8.10;82.55
77247;SHT35;66279;42.820;23.374;2023-05-07T00:56:21;8.00;82.99
77247;SHT35;66279;42.820;23.374;2023-05-07T00:58:48;7.89;83.52
77247;SHT35;66279;42.820;23.374;2023-05-07T01:01:14;7.85;84.98
77247;SHT35;66279;42.820;23.374;2023-05-07T01:03:42;7.78;84.12
77247;SHT35;66279;42.820;23.374;2023-05-07T01:06:09;7.69;83.64
77247;SHT35;66279;42.820;23.374;2023-05-07T01:08:38;7.66;83.43
77247;SHT35;66279;42.820;23.374;2023-05-07T01:11:06;7.61;83.95
77247;SHT35;66279;42.820;23.374;2023-05-07T01:13:33;7.55;84.10
77247;SHT35;66279;42.820;23.374;2023-05-07T01:15:59;7.52;83.55
77247;SHT35;66279;42.820;23.374;2023-05-07T01:18:25;7.45;83.82
77247;SHT35;66279;42.820;23.374;2023-05-07T01:20:52;7.45;83.71
77247;SHT35;66279;42.820;23.374;2023-05-07T01:23:18;7.47;84.15
77247;SHT35;66279;42.820;23.374;2023-05-07T01:25:54;7.37;84.20
77247;SHT35;66279;42.820;23.374;2023-05-07T01:28:20;7.38;84.41
77247;SHT35;66279;42.820;23.374;2023-05-07T01:30:54;7.34;84.36
77247;SHT35;66279;42.820;23.374;2023-05-07T01:33:21;7.26;83.62
77247;SHT35;66279;42.820;23.374;2023-05-07T01:35:50;7.18;84.28
77247;SHT35;66279;42.820;23.374;2023-05-07T01:38:18;7.17;83.97
77247;SHT35;66279;42.820;23.374;2023-05-07T01:40:44;7.08;84.67
77247;SHT35;66279;42.820;23.374;2023-05-07T01:43:10;7.06;84.95
77247;SHT35;66279;42.820;23.374;2023-05-07T01:45:36;7.01;84.32
77247;SHT35;66279;42.820;23.374;2023-05-07T01:48:02;6.96;84.65
77247;SHT35;66279;42.820;23.374;2023-05-07T01:50:28;6.82;84.35
77247;SHT35;66279;42.820;23.374;2023-05-07T01:52:55;6.71;84.76
77247;SHT35;66279;42.820;23.374;2023-05-07T01:55:20;6.59;85.86
77247;SHT35;66279;42.820;23.374;2023-05-07T01:57:46;6.50;85.91
77247;SHT35;66279;42.820;23.374;2023-05-07T02:00:11;6.45;86.71
77247;SHT35;66279;42.820;23.374;2023-05-07T02:02:37;6.42;87.09
77247;SHT35;66279;42.820;23.374;2023-05-07T02:05:04;6.34;87.40
77247;SHT35;66279;42.820;23.374;2023-05-07T02:07:29;6.35;87.80
77247;SHT35;66279;42.820;23.374;2023-05-07T02:09:55;6.41;87.55
77247;SHT35;66279;42.820;23.374;2023-05-07T02:12:21;6.38;87.82
77247;SHT35;66279;42.820;23.374;2023-05-07T02:14:46;6.38;87.15
77247;SHT35;66279;42.820;23.374;2023-05-07T02:17:12;6.39;87.24
77247;SHT35;66279;42.820;23.374;2023-05-07T02:19:37;6.39;87.64
77247;SHT35;66279;42.820;23.374;2023-05-07T02:22:03;6.46;87.50
77247;SHT35;66279;42.820;23.374;2023-05-07T02:24:28;6.49;86.99
77247;SHT35;66279;42.820;23.374;2023-05-07T02:26:54;6.48;86.81
77247;SHT35;66279;42.820;23.374;2023-05-07T02:29:19;6.50;86.13
77247;SHT35;66279;42.820;23.374;2023-05-07T02:31:45;6.46;86.22
77247;SHT35;66279;42.820;23.374;2023-05-07T02:34:10;6.46;85.57
77247;SHT35;66279;42.820;23.374;2023-05-07T02:36:36;6.38;86.89
77247;SHT35;66279;42.820;23.374;2023-05-07T02:39:02;6.37;87.50
77247;SHT35;66279;42.820;23.374;2023-05-07T02:41:28;6.34;87.14
77247;SHT35;66279;42.820;23.374;2023-05-07T02:43:53;6.31;87.95
77247;SHT35;66279;42.820;23.374;2023-05-07T02:46:19;6.27;87.35
77247;SHT35;66279;42.820;23.374;2023-05-07T02:48:44;6.25;86.66
77247;SHT35;66279;42.820;23.374;2023-05-07T02:51:10;6.18;87.18
77247;SHT35;66279;42.820;23.374;2023-05-07T02:53:35;6.16;86.85
77247;SHT35;66279;42.820;23.374;2023-05-07T02:56:02;6.10;87.02
77247;SHT35;66279;42.820;23.374;2023-05-07T02:58:28;6.10;87.61
77247;SHT35;66279;42.820;23.374;2023-05-07T03:00:54;6.14;88.06
77247;SHT35;66279;42.820;23.374;2023-05-07T03:03:22;6.18;87.95
77247;SHT35;66279;42.820;23.374;2023-05-07T03:05:47;6.18;88.33
77247;SHT35;66279;42.820;23.374;2023-05-07T03:08:13;6.17;88.12
77247;SHT35;66279;42.820;23.374;2023-05-07T03:10:38;6.14;88.48
77247;SHT35;66279;42.820;23.374;2023-05-07T03:13:04;6.13;88.31
77247;SHT35;66279;42.820;23.374;2023-05-07T03:15:30;6.11;88.43
77247;SHT35;66279;42.820;23.374;2023-05-07T03:17:55;6.07;88.69
77247;SHT35;66279;42.820;23.374;2023-05-07T03:20:21;6.03;88.66
77247;SHT35;66279;42.820;23.374;2023-05-07T03:22:47;6.03;88.60
77247;SHT35;66279;42.820;23.374;2023-05-07T03:25:12;6.00;88.58
77247;SHT35;66279;42.820;23.374;2023-05-07T03:27:39;6.00;88.64
77247;SHT35;66279;42.820;23.374;2023-05-07T03:30:05;6.03;88.39
77247;SHT35;66279;42.820;23.374;2023-05-07T03:32:32;6.10;88.16
77247;SHT35;66279;42.820;23.374;2023-05-07T03:34:57;6.07;88.69
77247;SHT35;66279;42.820;23.374;2023-05-07T03:37:23;6.13;88.81
77247;SHT35;66279;42.820;23.374;2023-05-07T03:39:48;6.16;89.04
77247;SHT35;66279;42.820;23.374;2023-05-07T03:42:14;6.18;89.50
77247;SHT35;66279;42.820;23.374;2023-05-07T03:44:40;6.22;89.14
77247;SHT35;66279;42.820;23.374;2023-05-07T03:47:05;6.18;89.01
77247;SHT35;66279;42.820;23.374;2023-05-07T03:49:31;6.22;88.73
77247;SHT35;66279;42.820;23.374;2023-05-07T03:51:57;6.27;88.99
77247;SHT35;66279;42.820;23.374;2023-05-07T03:54:22;6.29;88.84
77247;SHT35;66279;42.820;23.374;2023-05-07T03:56:48;6.35;88.68
77247;SHT35;66279;42.820;23.374;2023-05-07T03:59:13;6.42;88.82
77247;SHT35;66279;42.820;23.374;2023-05-07T04:01:39;6.49;88.79
77247;SHT35;66279;42.820;23.374;2023-05-07T04:04:05;6.55;88.09
77247;SHT35;66279;42.820;23.374;2023-05-07T04:06:31;6.61;88.21
77247;SHT35;66279;42.820;23.374;2023-05-07T04:08:57;6.71;88.50
77247;SHT35;66279;42.820;23.374;2023-05-07T04:11:22;6.75;88.84
77247;SHT35;66279;42.820;23.374;2023-05-07T04:13:48;6.80;89.73
77247;SHT35;66279;42.820;23.374;2023-05-07T04:16:13;6.89;89.72
77247;SHT35;66279;42.820;23.374;2023-05-07T04:18:39;6.96;89.21
77247;SHT35;66279;42.820;23.374;2023-05-07T04:21:05;7.00;89.57
77247;SHT35;66279;42.820;23.374;2023-05-07T04:23:31;7.10;89.09
77247;SHT35;66279;42.820;23.374;2023-05-07T04:25:56;7.14;89.39
77247;SHT35;66279;42.820;23.374;2023-05-07T04:28:22;7.24;89.50
77247;SHT35;66279;42.820;23.374;2023-05-07T04:30:48;7.28;89.06
77247;SHT35;66279;42.820;23.374;2023-05-07T04:33:14;7.34;89.85
77247;SHT35;66279;42.820;23.374;2023-05-07T04:35:42;7.44;89.48
77247;SHT35;66279;42.820;23.374;2023-05-07T04:38:07;7.54;88.85
77247;SHT35;66279;42.820;23.374;2023-05-07T04:40:35;7.62;88.95
77247;SHT35;66279;42.820;23.374;2023-05-07T04:43:01;7.71;88.71
77247;SHT35;66279;42.820;23.374;2023-05-07T04:45:26;7.79;88.35
77247;SHT35;66279;42.820;23.374;2023-05-07T04:47:52;7.86;88.32
77247;SHT35;66279;42.820;23.374;2023-05-07T04:50:17;7.92;87.95
77247;SHT35;66279;42.820;23.374;2023-05-07T04:52:44;8.00;88.22
77247;SHT35;66279;42.820;23.374;2023-05-07T04:55:10;8.07;88.64
77247;SHT35;66279;42.820;23.374;2023-05-07T04:57:36;8.19;89.14
77247;SHT35;66279;42.820;23.374;2023-05-07T05:00:03;8.27;87.88
77247;SHT35;66279;42.820;23.374;2023-05-07T05:02:29;8.37;87.68
77247;SHT35;66279;42.820;23.374;2023-05-07T05:04:55;8.48;86.93
77247;SHT35;66279;42.820;23.374;2023-05-07T05:07:20;8.63;86.27
77247;SHT35;66279;42.820;23.374;2023-05-07T05:09:46;8.74;86.49
77247;SHT35;66279;42.820;23.374;2023-05-07T05:12:11;8.91;85.95
77247;SHT35;66279;42.820;23.374;2023-05-07T05:14:37;9.06;85.34
77247;SHT35;66279;42.820;23.374;2023-05-07T05:17:02;9.27;85.13
77247;SHT35;66279;42.820;23.374;2023-05-07T05:19:28;9.40;84.57
77247;SHT35;66279;42.820;23.374;2023-05-07T05:21:53;9.58;84.33
77247;SHT35;66279;42.820;23.374;2023-05-07T05:24:19;9.81;84.40
77247;SHT35;66279;42.820;23.374;2023-05-07T05:26:45;10.08;84.08
77247;SHT35;66279;42.820;23.374;2023-05-07T05:29:10;10.35;83.21
77247;SHT35;66279;42.820;23.374;2023-05-07T05:31:36;10.57;82.96
77247;SHT35;66279;42.820;23.374;2023-05-07T05:34:02;10.85;82.15
77247;SHT35;66279;42.820;23.374;2023-05-07T05:36:28;11.14;81.24
77247;SHT35;66279;42.820;23.374;2023-05-07T05:38:55;11.42;80.33
77247;SHT35;66279;42.820;23.374;2023-05-07T05:41:20;11.75;79.71
77247;SHT35;66279;42.820;23.374;2023-05-07T05:43:46;12.03;78.59
77247;SHT35;66279;42.820;23.374;2023-05-07T05:46:12;12.27;76.45
77247;SHT35;66279;42.820;23.374;2023-05-07T05:48:37;12.55;75.44
77247;SHT35;66279;42.820;23.374;2023-05-07T05:51:03;12.82;75.86
77247;SHT35;66279;42.820;23.374;2023-05-07T05:53:28;13.03;75.01
77247;SHT35;66279;42.820;23.374;2023-05-07T05:55:54;13.32;75.82
77247;SHT35;66279;42.820;23.374;2023-05-07T05:58:20;13.64;73.80
77247;SHT35;66279;42.820;23.374;2023-05-07T06:00:45;13.95;74.20
77247;SHT35;66279;42.820;23.374;2023-05-07T06:03:11;14.32;74.19
77247;SHT35;66279;42.820;23.374;2023-05-07T06:05:36;14.56;71.89
77247;SHT35;66279;42.820;23.374;2023-05-07T06:08:02;14.73;68.98
77247;SHT35;66279;42.820;23.374;2023-05-07T06:10:28;15.00;69.67
77247;SHT35;66279;42.820;23.374;2023-05-07T06:12:55;15.24;69.93
77247;SHT35;66279;42.820;23.374;2023-05-07T06:15:20;15.42;69.86
77247;SHT35;66279;42.820;23.374;2023-05-07T06:17:46;15.56;69.33
77247;SHT35;66279;42.820;23.374;2023-05-07T06:20:11;15.70;68.74
77247;SHT35;66279;42.820;23.374;2023-05-07T06:22:37;16.09;67.97
77247;SHT35;66279;42.820;23.374;2023-05-07T06:25:02;16.41;64.34
77247;SHT35;66279;42.820;23.374;2023-05-07T06:27:28;16.78;66.06
77247;SHT35;66279;42.820;23.374;2023-05-07T06:29:53;17.08;66.37
77247;SHT35;66279;42.820;23.374;2023-05-07T06:32:19;17.18;64.37
77247;SHT35;66279;42.820;23.374;2023-05-07T06:34:44;17.46;62.31
77247;SHT35;66279;42.820;23.374;2023-05-07T06:37:10;17.73;63.81
77247;SHT35;66279;42.820;23.374;2023-05-07T06:39:35;17.95;61.34
77247;SHT35;66279;42.820;23.374;2023-05-07T06:42:01;18.15;64.39
77247;SHT35;66279;42.820;23.374;2023-05-07T06:44:27;18.36;60.94
77247;SHT35;66279;42.820;23.374;2023-05-07T06:46:53;18.42;58.69
77247;SHT35;66279;42.820;23.374;2023-05-07T06:49:18;18.66;61.35
77247;SHT35;66279;42.820;23.374;2023-05-07T06:51:44;19.03;60.14
77247;SHT35;66279;42.820;23.374;2023-05-07T06:54:09;19.31;59.56
77247;SHT35;66279;42.820;23.374;2023-05-07T06:56:35;19.47;58.70
77247;SHT35;66279;42.820;23.374;2023-05-07T06:59:01;19.25;57.43
77247;SHT35;66279;42.820;23.374;2023-05-07T07:01:27;19.45;57.00
77247;SHT35;66279;42.820;23.374;2023-05-07T07:03:52;19.68;58.51
77247;SHT35;66279;42.820;23.374;2023-05-07T07:06:18;19.65;55.44
77247;SHT35;66279;42.820;23.374;2023-05-07T07:08:43;19.78;55.39
77247;SHT35;66279;42.820;23.374;2023-05-07T07:11:09;20.23;55.93
77247;SHT35;66279;42.820;23.374;2023-05-07T07:13:35;20.23;54.19
77247;SHT35;66279;42.820;23.374;2023-05-07T07:16:01;20.43;57.12
77247;SHT35;66279;42.820;23.374;2023-05-07T07:18:27;20.78;54.49
77247;SHT35;66279;42.820;23.374;2023-05-07T07:20:52;20.88;52.44
77247;SHT35;66279;42.820;23.374;2023-05-07T07:23:18;21.23;53.10
77247;SHT35;66279;42.820;23.374;2023-05-07T07:25:44;21.47;50.99
77247;SHT35;66279;42.820;23.374;2023-05-07T07:28:10;21.90;53.34
77247;SHT35;66279;42.820;23.374;2023-05-07T07:30:36;21.91;51.01
77247;SHT35;66279;42.820;23.374;2023-05-07T07:33:02;22.19;53.04
77247;SHT35;66279;42.820;23.374;2023-05-07T07:35:32;22.45;53.22
77247;SHT35;66279;42.820;23.374;2023-05-07T07:37:57;22.66;47.24
77247;SHT35;66279;42.820;23.374;2023-05-07T07:40:23;23.06;46.68
77247;SHT35;66279;42.820;23.374;2023-05-07T07:42:50;23.45;52.23
77247;SHT35;66279;42.820;23.374;2023-05-07T07:45:16;23.71;46.87
77247;SHT35;66279;42.820;23.374;2023-05-07T07:47:42;23.23;46.69
77247;SHT35;66279;42.820;23.374;2023-05-07T07:50:07;22.87;47.08
77247;SHT35;66279;42.820;23.374;2023-05-07T07:52:34;22.90;46.60
77247;SHT35;66279;42.820;23.374;2023-05-07T07:54:59;23.40;48.91
77247;SHT35;66279;42.820;23.374;2023-05-07T07:57:25;23.59;45.65
77247;SHT35;66279;42.820;23.374;2023-05-07T07:59:50;24.01;44.60
77247;SHT35;66279;42.820;23.374;2023-05-07T08:02:17;23.92;48.69
77247;SHT35;66279;42.820;23.374;2023-05-07T08:04:42;24.50;45.57
77247;SHT35;66279;42.820;23.374;2023-05-07T08:07:09;24.90;42.75
77247;SHT35;66279;42.820;23.374;2023-05-07T08:09:36;25.05;44.03
77247;SHT35;66279;42.820;23.374;2023-05-07T08:12:02;25.33;41.30
77247;SHT35;66279;42.820;23.374;2023-05-07T08:14:27;25.25;39.75
77247;SHT35;66279;42.820;23.374;2023-05-07T08:16:54;25.45;42.31
77247;SHT35;66279;42.820;23.374;2023-05-07T08:19:20;25.73;40.23
77247;SHT35;66279;42.820;23.374;2023-05-07T08:21:45;26.11;42.73
77247;SHT35;66279;42.820;23.374;2023-05-07T08:24:13;25.91;39.02
77247;SHT35;66279;42.820;23.374;2023-05-07T08:26:39;26.24;39.04
77247;SHT35;66279;42.820;23.374;2023-05-07T08:29:05;26.37;38.92
77247;SHT35;66279;42.820;23.374;2023-05-07T08:31:30;26.14;40.40
77247;SHT35;66279;42.820;23.374;2023-05-07T08:33:57;26.08;38.76
77247;SHT35;66279;42.820;23.374;2023-05-07T08:36:23;26.28;39.06
77247;SHT35;66279;42.820;23.374;2023-05-07T08:38:48;26.49;38.54
77247;SHT35;66279;42.820;23.374;2023-05-07T08:41:15;26.41;38.56
77247;SHT35;66279;42.820;23.374;2023-05-07T08:43:41;26.58;40.29
77247;SHT35;66279;42.820;23.374;2023-05-07T08:46:09;26.49;38.04
77247;SHT35;66279;42.820;23.374;2023-05-07T08:48:35;26.48;37.22
77247;SHT35;66279;42.820;23.374;2023-05-07T08:51:01;26.55;40.32
77247;SHT35;66279;42.820;23.374;2023-05-07T08:53:26;26.78;36.87
77247;SHT35;66279;42.820;23.374;2023-05-07T08:55:52;27.16;36.49
77247;SHT35;66279;42.820;23.374;2023-05-07T08:58:18;26.78;39.67
77247;SHT35;66279;42.820;23.374;2023-05-07T09:00:44;27.00;40.57
77247;SHT35;66279;42.820;23.374;2023-05-07T09:03:09;27.41;38.22
77247;SHT35;66279;42.820;23.374;2023-05-07T09:05:37;27.71;35.89
77247;SHT35;66279;42.820;23.374;2023-05-07T09:08:03;27.99;36.97
77247;SHT35;66279;42.820;23.374;2023-05-07T09:10:33;28.49;38.42
77247;SHT35;66279;42.820;23.374;2023-05-07T09:12:58;27.43;37.88
77247;SHT35;66279;42.820;23.374;2023-05-07T09:15:24;27.98;39.41
77247;SHT35;66279;42.820;23.374;2023-05-07T09:17:50;28.01;33.66
77247;SHT35;66279;42.820;23.374;2023-05-07T09:20:16;28.03;35.31
77247;SHT35;66279;42.820;23.374;2023-05-07T09:22:41;27.84;32.99
77247;SHT35;66279;42.820;23.374;2023-05-07T09:25:08;28.23;33.81
77247;SHT35;66279;42.820;23.374;2023-05-07T09:27:34;28.60;33.26
77247;SHT35;66279;42.820;23.374;2023-05-07T09:30:05;28.77;32.34
77247;SHT35;66279;42.820;23.374;2023-05-07T09:32:36;28.86;34.42
77247;SHT35;66279;42.820;23.374;2023-05-07T09:35:04;28.43;31.83
77247;SHT35;66279;42.820;23.374;2023-05-07T09:37:31;28.37;30.58
77247;SHT35;66279;42.820;23.374;2023-05-07T09:39:57;28.09;31.98
77247;SHT35;66279;42.820;23.374;2023-05-07T09:42:26;28.23;32.34
77247;SHT35;66279;42.820;23.374;2023-05-07T09:44:52;28.19;29.20
77247;SHT35;66279;42.820;23.374;2023-05-07T09:47:24;28.63;34.17
77247;SHT35;66279;42.820;23.374;2023-05-07T09:49:49;28.53;27.72
77247;SHT35;66279;42.820;23.374;2023-05-07T09:52:16;27.74;35.28
77247;SHT35;66279;42.820;23.374;2023-05-07T09:54:41;28.37;31.86
77247;SHT35;66279;42.820;23.374;2023-05-07T09:57:10;28.54;29.25
77247;SHT35;66279;42.820;23.374;2023-05-07T09:59:37;29.05;35.15
77247;SHT35;66279;42.820;23.374;2023-05-07T10:02:04;29.08;30.50
77247;SHT35;66279;42.820;23.374;2023-05-07T10:04:31;28.87;29.90
77247;SHT35;66279;42.820;23.374;2023-05-07T10:06:57;28.83;28.69
77247;SHT35;66279;42.820;23.374;2023-05-07T10:09:23;28.61;29.64
77247;SHT35;66279;42.820;23.374;2023-05-07T10:11:51;29.05;28.63
77247;SHT35;66279;42.820;23.374;2023-05-07T10:14:17;28.91;27.59
77247;SHT35;66279;42.820;23.374;2023-05-07T10:16:43;28.54;28.29
77247;SHT35;66279;42.820;23.374;2023-05-07T10:19:09;28.91;29.80
77247;SHT35;66279;42.820;23.374;2023-05-07T10:21:40;29.53;33.73
77247;SHT35;66279;42.820;23.374;2023-05-07T10:24:12;29.79;27.43
77247;SHT35;66279;42.820;23.374;2023-05-07T10:26:44;29.76;27.44
77247;SHT35;66279;42.820;23.374;2023-05-07T10:29:33;29.14;26.93
77247;SHT35;66279;42.820;23.374;2023-05-07T10:34:34;29.51;28.40
77247;SHT35;66279;42.820;23.374;2023-05-07T10:37:01;29.43;28.44
77247;SHT35;66279;42.820;23.374;2023-05-07T10:39:27;29.76;32.57
77247;SHT35;66279;42.820;23.374;2023-05-07T10:41:52;29.29;29.03
77247;SHT35;66279;42.820;23.374;2023-05-07T10:44:28;29.29;30.70
77247;SHT35;66279;42.820;23.374;2023-05-07T10:47:15;29.23;27.99
77247;SHT35;66279;42.820;23.374;2023-05-07T10:52:23;28.08;28.87
77247;SHT35;66279;42.820;23.374;2023-05-07T10:57:46;29.39;31.64
77247;SHT35;66279;42.820;23.374;2023-05-07T11:05:24;29.63;26.11
77247;SHT35;66279;42.820;23.374;2023-05-07T11:07:54;29.55;25.07
77247;SHT35;66279;42.820;23.374;2023-05-07T11:10:20;29.90;26.81
77247;SHT35;66279;42.820;23.374;2023-05-07T11:12:50;29.51;24.55
77247;SHT35;66279;42.820;23.374;2023-05-07T11:15:33;30.48;30.47
77247;SHT35;66279;42.820;23.374;2023-05-07T11:18:00;30.37;26.52
77247;SHT35;66279;42.820;23.374;2023-05-07T11:26:07;30.38;25.76
77247;SHT35;66279;42.820;23.374;2023-05-07T11:28:43;30.23;25.38
77247;SHT35;66279;42.820;23.374;2023-05-07T11:31:10;30.48;29.60
77247;SHT35;66279;42.820;23.374;2023-05-07T11:33:37;30.72;30.23
77247;SHT35;66279;42.820;23.374;2023-05-07T11:36:04;30.74;24.70
77247;SHT35;66279;42.820;23.374;2023-05-07T11:38:33;31.17;28.05
77247;SHT35;66279;42.820;23.374;2023-05-07T11:40:59;30.64;26.28
77247;SHT35;66279;42.820;23.374;2023-05-07T11:43:30;30.80;24.40
77247;SHT35;66279;42.820;23.374;2023-05-07T11:46:11;30.24;28.60
77247;SHT35;66279;42.820;23.374;2023-05-07T11:48:37;30.62;25.44
77247;SHT35;66279;42.820;23.374;2023-05-07T11:51:05;30.64;26.21
77247;SHT35;66279;42.820;23.374;2023-05-07T11:53:41;30.42;26.08
77247;SHT35;66279;42.820;23.374;2023-05-07T11:56:14;30.25;27.22
77247;SHT35;66279;42.820;23.374;2023-05-07T11:58:41;29.56;27.15
77247;SHT35;66279;42.820;23.374;2023-05-07T12:01:10;29.84;27.61
77247;SHT35;66279;42.820;23.374;2023-05-07T12:03:37;29.72;27.92
77247;SHT35;66279;42.820;23.374;2023-05-07T12:06:05;29.36;25.63
77247;SHT35;66279;42.820;23.374;2023-05-07T12:08:31;29.04;27.38
77247;SHT35;66279;42.820;23.374;2023-05-07T12:10:57;29.26;26.20
77247;SHT35;66279;42.820;23.374;2023-05-07T12:13:24;29.35;25.40
77247;SHT35;66279;42.820;23.374;2023-05-07T12:15:55;29.43;27.90
77247;SHT35;66279;42.820;23.374;2023-05-07T12:18:21;29.87;26.02
77247;SHT35;66279;42.820;23.374;2023-05-07T12:20:49;29.56;24.09
77247;SHT35;66279;42.820;23.374;2023-05-07T12:23:15;29.86;25.57
77247;SHT35;66279;42.820;23.374;2023-05-07T12:25:42;30.00;24.60
77247;SHT35;66279;42.820;23.374;2023-05-07T12:28:18;30.62;27.66
77247;SHT35;66279;42.820;23.374;2023-05-07T12:30:45;30.28;26.48
77247;SHT35;66279;42.820;23.374;2023-05-07T12:33:11;30.47;24.55
77247;SHT35;66279;42.820;23.374;2023-05-07T12:35:39;30.54;25.58
77247;SHT35;66279;42.820;23.374;2023-05-07T12:38:13;30.71;25.68
77247;SHT35;66279;42.820;23.374;2023-05-07T12:40:40;30.71;25.08
77247;SHT35;66279;42.820;23.374;2023-05-07T12:43:06;30.51;27.97
77247;SHT35;66279;42.820;23.374;2023-05-07T12:45:37;30.99;25.63
77247;SHT35;66279;42.820;23.374;2023-05-07T12:48:04;30.35;23.85
77247;SHT35;66279;42.820;23.374;2023-05-07T12:50:32;30.42;24.61
77247;SHT35;66279;42.820;23.374;2023-05-07T12:52:58;30.89;28.21
77247;SHT35;66279;42.820;23.374;2023-05-07T12:55:24;31.12;28.05
77247;SHT35;66279;42.820;23.374;2023-05-07T12:57:51;31.85;26.96
77247;SHT35;66279;42.820;23.374;2023-05-07T13:00:18;31.34;24.14
77247;SHT35;66279;42.820;23.374;2023-05-07T13:02:58;31.30;24.32
77247;SHT35;66279;42.820;23.374;2023-05-07T13:05:24;30.96;23.26
77247;SHT35;66279;42.820;23.374;2023-05-07T13:07:53;30.34;24.09
77247;SHT35;66279;42.820;23.374;2023-05-07T13:10:19;30.41;23.21
77247;SHT35;66279;42.820;23.374;2023-05-07T13:12:44;30.54;23.16
77247;SHT35;66279;42.820;23.374;2023-05-07T13:15:10;29.97;23.09
77247;SHT35;66279;42.820;23.374;2023-05-07T13:17:35;30.42;26.00
77247;SHT35;66279;42.820;23.374;2023-05-07T13:20:01;30.37;22.49
77247;SHT35;66279;42.820;23.374;2023-05-07T13:22:26;30.98;23.80
77247;SHT35;66279;42.820;23.374;2023-05-07T13:24:52;30.40;21.99
77247;SHT35;66279;42.820;23.374;2023-05-07T13:27:18;30.57;25.00
77247;SHT35;66279;42.820;23.374;2023-05-07T13:29:44;30.54;24.56
77247;SHT35;66279;42.820;23.374;2023-05-07T13:32:10;30.47;25.25
77247;SHT35;66279;42.820;23.374;2023-05-07T13:34:35;30.27;22.47
77247;SHT35;66279;42.820;23.374;2023-05-07T13:37:02;29.41;22.57
77247;SHT35;66279;42.820;23.374;2023-05-07T13:39:27;29.63;24.92
77247;SHT35;66279;42.820;23.374;2023-05-07T13:41:53;29.94;23.19
77247;SHT35;66279;42.820;23.374;2023-05-07T13:44:18;30.38;27.05
77247;SHT35;66279;42.820;23.374;2023-05-07T13:46:44;30.95;23.51
77247;SHT35;66279;42.820;23.374;2023-05-07T13:49:10;31.17;23.89
77247;SHT35;66279;42.820;23.374;2023-05-07T13:51:36;30.86;22.46
77247;SHT35;66279;42.820;23.374;2023-05-07T13:54:01;30.32;23.87
77247;SHT35;66279;42.820;23.374;2023-05-07T13:56:28;29.99;24.54
77247;SHT35;66279;42.820;23.374;2023-05-07T13:58:56;29.67;24.03
77247;SHT35;66279;42.820;23.374;2023-05-07T14:01:21;29.67;23.94
77247;SHT35;66279;42.820;23.374;2023-05-07T14:03:47;30.03;26.42
77247;SHT35;66279;42.820;23.374;2023-05-07T14:06:12;30.13;25.50
77247;SHT35;66279;42.820;23.374;2023-05-07T14:08:38;29.81;24.44
77247;SHT35;66279;42.820;23.374;2023-05-07T14:11:04;29.73;25.53
77247;SHT35;66279;42.820;23.374;2023-05-07T14:13:29;30.24;25.49
77247;SHT35;66279;42.820;23.374;2023-05-07T14:15:56;29.79;24.91
77247;SHT35;66279;42.820;23.374;2023-05-07T14:18:22;29.59;24.74
77247;SHT35;66279;42.820;23.374;2023-05-07T14:20:47;29.21;25.29
77247;SHT35;66279;42.820;23.374;2023-05-07T14:23:14;29.36;26.37
77247;SHT35;66279;42.820;23.374;2023-05-07T14:25:40;29.69;26.70
77247;SHT35;66279;42.820;23.374;2023-05-07T14:28:06;29.49;24.48
77247;SHT35;66279;42.820;23.374;2023-05-07T14:30:32;29.76;25.73
77247;SHT35;66279;42.820;23.374;2023-05-07T14:32:57;29.89;25.97
77247;SHT35;66279;42.820;23.374;2023-05-07T14:35:23;30.03;26.82
77247;SHT35;66279;42.820;23.374;2023-05-07T14:37:48;30.13;25.53
77247;SHT35;66279;42.820;23.374;2023-05-07T14:40:14;29.66;24.40
77247;SHT35;66279;42.820;23.374;2023-05-07T14:42:40;29.93;25.73
77247;SHT35;66279;42.820;23.374;2023-05-07T14:45:06;29.80;25.65
77247;SHT35;66279;42.820;23.374;2023-05-07T14:47:31;29.93;25.01
77247;SHT35;66279;42.820;23.374;2023-05-07T14:49:57;29.81;26.30
77247;SHT35;66279;42.820;23.374;2023-05-07T14:52:23;29.53;28.00
77247;SHT35;66279;42.820;23.374;2023-05-07T14:54:49;29.56;27.49
77247;SHT35;66279;42.820;23.374;2023-05-07T14:57:14;29.31;26.83
77247;SHT35;66279;42.820;23.374;2023-05-07T14:59:41;29.04;26.96
77247;SHT35;66279;42.820;23.374;2023-05-07T15:02:08;28.97;28.04
77247;SHT35;66279;42.820;23.374;2023-05-07T15:04:34;29.02;27.67
77247;SHT35;66279;42.820;23.374;2023-05-07T15:07:00;28.73;28.23
77247;SHT35;66279;42.820;23.374;2023-05-07T15:09:26;27.98;29.26
77247;SHT35;66279;42.820;23.374;2023-05-07T15:11:51;27.92;29.70
77247;SHT35;66279;42.820;23.374;2023-05-07T15:14:17;27.54;29.16
77247;SHT35;66279;42.820;23.374;2023-05-07T15:16:42;27.65;30.17
77247;SHT35;66279;42.820;23.374;2023-05-07T15:19:08;27.61;28.41
77247;SHT35;66279;42.820;23.374;2023-05-07T15:21:33;27.65;29.26
77247;SHT35;66279;42.820;23.374;2023-05-07T15:24:01;27.92;29.68
77247;SHT35;66279;42.820;23.374;2023-05-07T15:26:27;27.95;29.15
77247;SHT35;66279;42.820;23.374;2023-05-07T15:28:52;27.72;28.65
77247;SHT35;66279;42.820;23.374;2023-05-07T15:31:18;27.65;29.53
77247;SHT35;66279;42.820;23.374;2023-05-07T15:33:43;27.58;30.79
77247;SHT35;66279;42.820;23.374;2023-05-07T15:36:30;27.61;30.12